Terminal Aerodrome Forecast
Issued by NWS

Home | Current Version | Previous Version | Text Only | Print | Product List | Glossary On
Versions: 1 2 3 4 5 6 7 8 9 10 11 12 13 14 15
929
FTPA31 PHFO 291727
TAFHOG
TAF
PHOG 291727Z 2918/3018 VRB03KT P6SM FEW035
     FM292100 03012KT P6SM SCT030 SCT060
     FM300600 VRB03KT P6SM SCT030 SCT060
     FM300800 13004KT P6SM SCT035
      AMD LTD TO VIS AND WIND 3009/3016=

USA.gov is the U.S. government's official web portal to all federal, state and local government web resources and services.